createdAt,value
2022-11-12T00:00:23.616Z,10.06
2022-11-12T00:01:23.603Z,10.08
2022-11-12T00:02:23.618Z,10.08
2022-11-12T00:03:23.581Z,10.09
2022-11-12T00:04:23.698Z,10.09
2022-11-12T00:05:23.559Z,10.09
2022-11-12T00:06:23.551Z,10.08
2022-11-12T00:07:23.536Z,10.05
2022-11-12T00:08:23.942Z,10.03
2022-11-12T00:09:23.514Z,9.99
2022-11-12T00:10:23.503Z,9.99
2022-11-12T00:11:23.494Z,9.94
2022-11-12T00:12:23.486Z,9.91
2022-11-12T00:13:23.467Z,9.88
2022-11-12T00:14:23.458Z,9.87
2022-11-12T00:15:23.453Z,9.84
2022-11-12T00:16:23.434Z,9.84
2022-11-12T00:17:23.423Z,9.81
2022-11-12T00:18:23.640Z,9.83
2022-11-12T00:19:23.405Z,9.81
2022-11-12T00:20:23.504Z,9.81
2022-11-12T00:21:23.385Z,9.83
2022-11-12T00:22:23.371Z,9.83
2022-11-12T00:23:23.364Z,9.84
2022-11-12T00:24:23.342Z,9.84
2022-11-12T00:25:23.339Z,9.84
2022-11-12T00:26:23.327Z,9.85
2022-11-12T00:27:23.318Z,9.83
2022-11-12T00:28:23.523Z,9.84
2022-11-12T00:29:23.290Z,9.84
2022-11-12T00:30:23.280Z,9.84
2022-11-12T00:31:23.268Z,9.83
2022-11-12T00:32:23.257Z,9.83
2022-11-12T00:33:23.246Z,9.83
2022-11-12T00:34:23.234Z,9.81
2022-11-12T00:35:23.227Z,9.81
2022-11-12T00:36:23.325Z,9.83
2022-11-12T00:37:23.220Z,9.83
2022-11-12T00:38:23.475Z,9.84
2022-11-12T00:39:23.182Z,9.83
2022-11-12T00:40:23.175Z,9.84
2022-11-12T00:41:23.176Z,9.87
2022-11-12T00:42:23.143Z,9.87
2022-11-12T00:43:23.134Z,9.88
2022-11-12T00:44:23.119Z,9.90
2022-11-12T00:45:23.108Z,9.87
2022-11-12T00:46:23.101Z,9.88
2022-11-12T00:47:23.087Z,9.88
2022-11-12T00:48:23.263Z,9.88
2022-11-12T00:49:23.076Z,9.87
2022-11-12T00:50:23.054Z,9.88
2022-11-12T00:51:23.048Z,9.87
2022-11-12T00:52:23.154Z,9.87
2022-11-12T00:53:23.022Z,9.85
2022-11-12T00:54:23.008Z,9.85
2022-11-12T00:55:23.012Z,9.84
2022-11-12T00:56:22.988Z,9.85
2022-11-12T00:57:22.976Z,9.85
2022-11-12T00:58:23.244Z,9.84
2022-11-12T00:59:22.953Z,9.83
2022-11-12T01:00:22.941Z,9.83
2022-11-12T01:01:23.021Z,9.83
2022-11-12T01:02:22.916Z,9.83
2022-11-12T01:03:22.927Z,9.81
2022-11-12T01:04:22.902Z,9.77
2022-11-12T01:05:22.893Z,9.80
2022-11-12T01:06:22.874Z,9.77
2022-11-12T01:07:22.870Z,9.76
2022-11-12T01:08:23.538Z,9.77
2022-11-12T01:09:22.840Z,9.76
2022-11-12T01:10:22.832Z,9.76
2022-11-12T01:11:22.817Z,9.76
2022-11-12T01:12:22.806Z,9.72
2022-11-12T01:13:22.795Z,9.74
2022-11-12T01:14:22.783Z,9.72
2022-11-12T01:15:22.778Z,9.74
2022-11-12T01:16:22.767Z,9.74
2022-11-12T01:17:22.749Z,9.74
2022-11-12T01:18:22.888Z,9.74
2022-11-12T01:19:22.734Z,9.76
2022-11-12T01:20:22.716Z,9.74
2022-11-12T01:21:22.714Z,9.74
2022-11-12T01:22:22.694Z,9.74
2022-11-12T01:23:22.683Z,9.71
2022-11-12T01:24:22.790Z,9.72
2022-11-12T01:25:22.667Z,9.71
2022-11-12T01:26:22.648Z,9.69
2022-11-12T01:27:22.639Z,9.69
2022-11-12T01:28:22.731Z,9.71
2022-11-12T01:29:22.616Z,9.71
2022-11-12T01:30:22.605Z,9.69
2022-11-12T01:31:22.604Z,9.69
2022-11-12T01:32:22.581Z,9.66
2022-11-12T01:33:22.576Z,9.65
2022-11-12T01:34:22.561Z,9.64
2022-11-12T01:35:22.550Z,9.62
2022-11-12T01:36:22.539Z,9.61
2022-11-12T01:37:22.525Z,9.61
2022-11-12T01:38:22.778Z,9.59
2022-11-12T01:39:22.503Z,9.58
2022-11-12T01:40:22.613Z,9.59
2022-11-12T01:41:22.481Z,9.56
2022-11-12T01:42:22.469Z,9.56
2022-11-12T01:43:22.457Z,9.54
2022-11-12T01:44:22.449Z,9.54
2022-11-12T01:45:22.439Z,9.53
2022-11-12T01:46:22.425Z,9.53
2022-11-12T01:47:22.413Z,9.51
2022-11-12T01:48:22.504Z,9.51
2022-11-12T01:49:22.396Z,9.50
2022-11-12T01:50:22.388Z,9.50
2022-11-12T01:51:22.373Z,9.50
2022-11-12T01:52:22.357Z,9.50
2022-11-12T01:53:22.351Z,9.49
2022-11-12T01:54:22.338Z,9.47
2022-11-12T01:55:22.322Z,9.49
2022-11-12T01:56:22.431Z,9.49
2022-11-12T01:57:22.301Z,9.49
2022-11-12T01:58:22.289Z,9.50
2022-11-12T01:59:22.283Z,9.49
2022-11-12T02:00:22.267Z,9.47
2022-11-12T02:01:22.325Z,9.49
2022-11-12T02:02:22.245Z,9.46
2022-11-12T02:03:22.236Z,9.47
2022-11-12T02:04:22.222Z,9.47
2022-11-12T02:05:22.211Z,9.49
2022-11-12T02:06:22.200Z,9.47
2022-11-12T02:07:22.187Z,9.49
2022-11-12T02:08:22.369Z,9.49
2022-11-12T02:09:22.167Z,9.47
2022-11-12T02:10:22.155Z,9.47
2022-11-12T02:11:22.149Z,9.47
2022-11-12T02:12:22.254Z,9.47
2022-11-12T02:13:22.131Z,9.44
2022-11-12T02:14:22.111Z,9.46
2022-11-12T02:15:22.101Z,9.44
2022-11-12T02:16:22.085Z,9.44
2022-11-12T02:17:22.075Z,9.43
2022-11-12T02:18:22.063Z,9.43
2022-11-12T02:19:22.051Z,9.44
2022-11-12T02:20:22.039Z,9.44
2022-11-12T02:21:22.031Z,9.44
2022-11-12T02:22:22.018Z,9.44
2022-11-12T02:23:22.007Z,9.43
2022-11-12T02:24:21.998Z,9.43
2022-11-12T02:25:21.984Z,9.41
2022-11-12T02:26:21.973Z,9.41
2022-11-12T02:27:21.965Z,9.43
2022-11-12T02:28:22.157Z,9.41
2022-11-12T02:29:21.940Z,9.43
2022-11-12T02:30:21.931Z,9.44
2022-11-12T02:31:21.920Z,9.46
2022-11-12T02:32:21.910Z,9.47
2022-11-12T02:33:21.897Z,9.50
2022-11-12T02:34:21.886Z,9.51
2022-11-12T02:35:21.871Z,9.53
2022-11-12T02:36:21.858Z,9.53
2022-11-12T02:37:21.849Z,9.54
2022-11-12T02:38:21.837Z,9.51
2022-11-12T02:39:21.834Z,9.53
2022-11-12T02:40:21.817Z,9.53
2022-11-12T02:41:21.804Z,9.53
2022-11-12T02:42:21.791Z,9.51
2022-11-12T02:43:21.784Z,9.53
2022-11-12T02:44:21.890Z,9.51
2022-11-12T02:45:21.765Z,9.50
2022-11-12T02:46:21.747Z,9.47
2022-11-12T02:47:21.740Z,9.47
2022-11-12T02:48:21.724Z,9.47
2022-11-12T02:49:21.714Z,9.47
2022-11-12T02:50:21.701Z,9.44
2022-11-12T02:51:21.692Z,9.46
2022-11-12T02:52:21.685Z,9.44
2022-11-12T02:53:21.675Z,9.44
2022-11-12T02:54:21.659Z,9.43
2022-11-12T02:55:21.649Z,9.43
2022-11-12T02:56:21.636Z,9.41
2022-11-12T02:57:21.632Z,9.41
2022-11-12T02:58:21.615Z,9.40
2022-11-12T02:59:21.601Z,9.40
2022-11-12T03:00:21.709Z,9.40
2022-11-12T03:01:21.709Z,9.40
2022-11-12T03:02:21.569Z,9.40
2022-11-12T03:03:21.561Z,9.39
2022-11-12T03:04:21.544Z,9.40
2022-11-12T03:05:21.536Z,9.39
2022-11-12T03:06:21.522Z,9.39
2022-11-12T03:07:21.554Z,9.39
2022-11-12T03:08:21.506Z,9.39
2022-11-12T03:09:21.492Z,9.39
2022-11-12T03:10:21.479Z,9.36
2022-11-12T03:11:21.469Z,9.36
2022-11-12T03:12:21.461Z,9.36
2022-11-12T03:13:21.446Z,9.39
2022-11-12T03:14:21.434Z,9.40
2022-11-12T03:15:21.423Z,9.39
2022-11-12T03:16:21.539Z,9.36
2022-11-12T03:17:21.398Z,9.35
2022-11-12T03:18:21.387Z,9.35
2022-11-12T03:19:21.381Z,9.33
2022-11-12T03:20:21.365Z,9.35
2022-11-12T03:21:21.356Z,9.32
2022-11-12T03:22:21.346Z,9.32
2022-11-12T03:23:21.334Z,9.29
2022-11-12T03:24:21.325Z,9.28
2022-11-12T03:25:21.311Z,9.28
2022-11-12T03:26:21.300Z,9.25
2022-11-12T03:27:21.287Z,9.22
2022-11-12T03:28:21.277Z,9.22
2022-11-12T03:29:21.273Z,9.21
2022-11-12T03:30:21.256Z,9.18
2022-11-12T03:31:21.243Z,9.17
2022-11-12T03:32:21.349Z,9.15
2022-11-12T03:33:21.222Z,9.13
2022-11-12T03:34:21.210Z,9.11
2022-11-12T03:35:21.199Z,9.13
2022-11-12T03:36:21.187Z,9.10
2022-11-12T03:37:21.177Z,9.08
2022-11-12T03:38:21.172Z,9.07
2022-11-12T03:39:21.152Z,9.06
2022-11-12T03:40:21.142Z,9.04
2022-11-12T03:41:21.129Z,9.03
2022-11-12T03:42:21.124Z,9.01
2022-11-12T03:43:21.107Z,8.99
2022-11-12T03:44:21.100Z,8.99
2022-11-12T03:45:21.084Z,8.98
2022-11-12T03:46:21.075Z,8.96
2022-11-12T03:47:21.059Z,8.96
2022-11-12T03:48:21.173Z,8.96
2022-11-12T03:49:21.040Z,8.95
2022-11-12T03:50:21.025Z,8.95
2022-11-12T03:51:21.018Z,8.95
2022-11-12T03:52:21.007Z,8.95
2022-11-12T03:53:20.992Z,8.95
2022-11-12T03:54:20.984Z,8.93
2022-11-12T03:55:20.976Z,8.90
2022-11-12T03:56:20.959Z,8.90
2022-11-12T03:57:20.949Z,8.90
2022-11-12T03:58:20.935Z,8.89
2022-11-12T03:59:20.927Z,8.89
2022-11-12T04:00:20.914Z,8.88
2022-11-12T04:01:20.971Z,8.89
2022-11-12T04:02:20.894Z,8.88
2022-11-12T04:03:20.880Z,8.86
2022-11-12T04:04:20.990Z,8.86
2022-11-12T04:05:20.858Z,8.88
2022-11-12T04:06:20.846Z,8.85
2022-11-12T04:07:20.843Z,8.83
2022-11-12T04:08:20.822Z,8.83
2022-11-12T04:09:20.818Z,8.85
2022-11-12T04:10:20.801Z,8.83
2022-11-12T04:11:20.791Z,8.83
2022-11-12T04:12:20.778Z,8.80
2022-11-12T04:13:20.772Z,8.78
2022-11-12T04:14:20.766Z,8.78
2022-11-12T04:15:20.745Z,8.80
2022-11-12T04:16:20.738Z,8.78
2022-11-12T04:17:20.725Z,8.77
2022-11-12T04:18:20.711Z,8.77
2022-11-12T04:19:20.699Z,8.74
2022-11-12T04:20:20.802Z,8.75
2022-11-12T04:21:20.677Z,8.72
2022-11-12T04:22:20.666Z,8.72
2022-11-12T04:23:20.660Z,8.72
2022-11-12T04:24:20.642Z,8.74
2022-11-12T04:25:20.633Z,8.71
2022-11-12T04:26:20.621Z,8.71
2022-11-12T04:27:20.616Z,8.70
2022-11-12T04:28:20.598Z,8.68
2022-11-12T04:29:20.586Z,8.67
2022-11-12T04:30:20.584Z,8.67
2022-11-12T04:31:20.563Z,8.65
2022-11-12T04:32:20.557Z,8.63
2022-11-12T04:33:20.541Z,8.63
2022-11-12T04:34:20.621Z,8.62
2022-11-12T04:35:20.523Z,8.60
2022-11-12T04:36:20.627Z,8.60
2022-11-12T04:37:23.479Z,8.59
2022-11-12T04:38:20.485Z,8.62
2022-11-12T04:39:20.474Z,8.59
2022-11-12T04:40:20.461Z,8.57
2022-11-12T04:41:20.450Z,8.57
2022-11-12T04:42:20.436Z,8.57
2022-11-12T04:43:20.429Z,8.55
2022-11-12T04:44:20.413Z,8.55
2022-11-12T04:45:20.402Z,8.53
2022-11-12T04:46:20.402Z,8.53
2022-11-12T04:47:20.387Z,8.50
2022-11-12T04:48:20.369Z,8.52
2022-11-12T04:49:20.357Z,8.52
2022-11-12T04:50:20.350Z,8.50
2022-11-12T04:51:20.336Z,8.52
2022-11-12T04:52:20.453Z,8.50
2022-11-12T04:53:20.312Z,8.50
2022-11-12T04:54:20.304Z,8.47
2022-11-12T04:55:20.290Z,8.46
2022-11-12T04:56:20.277Z,8.44
2022-11-12T04:57:20.267Z,8.41
2022-11-12T04:58:20.253Z,8.39
2022-11-12T04:59:20.243Z,8.38
2022-11-12T05:00:20.234Z,8.37
2022-11-12T05:01:20.267Z,8.37
2022-11-12T05:02:20.213Z,8.34
2022-11-12T05:03:20.203Z,8.34
2022-11-12T05:04:20.187Z,8.34
2022-11-12T05:05:20.174Z,8.33
2022-11-12T05:06:20.162Z,8.33
2022-11-12T05:07:20.257Z,8.28
2022-11-12T05:08:20.253Z,8.28
2022-11-12T05:09:20.127Z,8.28
2022-11-12T05:10:20.127Z,8.25
2022-11-12T05:11:20.107Z,8.27
2022-11-12T05:12:20.098Z,8.27
2022-11-12T05:13:20.082Z,8.23
2022-11-12T05:14:20.073Z,8.25
2022-11-12T05:15:20.059Z,8.23
2022-11-12T05:16:20.046Z,8.22
2022-11-12T05:17:20.042Z,8.23
2022-11-12T05:18:20.026Z,8.23
2022-11-12T05:19:20.015Z,8.23
2022-11-12T05:20:20.005Z,8.22
2022-11-12T05:21:19.998Z,8.22
2022-11-12T05:22:40.735Z,8.18
2022-11-12T05:23:19.965Z,8.19
2022-11-12T05:24:40.613Z,8.19
2022-11-12T05:25:19.943Z,8.16
2022-11-12T05:26:19.932Z,8.16
2022-11-12T05:27:19.922Z,8.16
2022-11-12T05:28:19.907Z,8.15
2022-11-12T05:29:19.895Z,8.15
2022-11-12T05:30:19.893Z,8.15
2022-11-12T05:31:19.873Z,8.18
2022-11-12T05:32:19.863Z,8.19
2022-11-12T05:33:19.858Z,8.19
2022-11-12T05:34:22.911Z,8.20
2022-11-12T05:35:19.832Z,8.22
2022-11-12T05:36:19.815Z,8.20
2022-11-12T05:37:19.813Z,8.20
2022-11-12T05:38:19.792Z,8.22
2022-11-12T05:39:19.789Z,8.20
2022-11-12T05:40:19.889Z,8.19
2022-11-12T05:41:20.485Z,8.18
2022-11-12T05:42:19.754Z,8.15
2022-11-12T05:43:19.735Z,8.15
2022-11-12T05:44:19.754Z,8.12
2022-11-12T05:45:19.710Z,8.09
2022-11-12T05:46:19.700Z,8.09
2022-11-12T05:47:19.690Z,8.08
2022-11-12T05:48:24.218Z,8.08
2022-11-12T05:49:19.670Z,8.04
2022-11-12T05:50:19.660Z,8.03
2022-11-12T05:51:21.644Z,8.03
2022-11-12T05:52:19.639Z,8.00
2022-11-12T05:53:19.618Z,7.98
2022-11-12T05:54:19.609Z,7.98
2022-11-12T05:55:19.599Z,7.97
2022-11-12T05:56:19.709Z,7.95
2022-11-12T05:57:19.573Z,7.95
2022-11-12T05:58:19.561Z,7.93
2022-11-12T05:59:21.548Z,7.90
2022-11-12T06:00:21.543Z,7.87
2022-11-12T06:01:19.530Z,7.86
2022-11-12T06:02:19.600Z,7.85
2022-11-12T06:03:21.501Z,7.87
2022-11-12T06:04:19.491Z,7.87
2022-11-12T06:05:19.481Z,7.90
2022-11-12T06:06:19.466Z,7.91
2022-11-12T06:07:19.617Z,7.93
2022-11-12T06:08:19.451Z,7.93
2022-11-12T06:09:19.432Z,7.94
2022-11-12T06:10:20.774Z,7.94
2022-11-12T06:11:21.407Z,7.94
2022-11-12T06:12:19.513Z,7.94
2022-11-12T06:13:19.386Z,7.94
2022-11-12T06:14:19.373Z,7.94
2022-11-12T06:15:21.363Z,7.94
2022-11-12T06:16:19.353Z,7.91
2022-11-12T06:17:19.339Z,7.91
2022-11-12T06:18:21.344Z,7.91
2022-11-12T06:19:19.315Z,7.90
2022-11-12T06:20:19.303Z,7.87
2022-11-12T06:21:19.305Z,7.90
2022-11-12T06:22:19.281Z,7.90
2022-11-12T06:23:21.270Z,7.90
2022-11-12T06:24:19.258Z,7.90
2022-11-12T06:25:19.254Z,7.87
2022-11-12T06:26:19.236Z,7.90
2022-11-12T06:27:19.224Z,7.85
2022-11-12T06:28:19.372Z,7.85
2022-11-12T06:29:19.203Z,7.83
2022-11-12T06:30:24.473Z,7.83
2022-11-12T06:31:19.177Z,7.83
2022-11-12T06:32:19.165Z,7.83
2022-11-12T06:33:19.153Z,7.83
2022-11-12T06:34:19.142Z,7.82
2022-11-12T06:35:19.137Z,7.82
2022-11-12T06:36:19.122Z,7.83
2022-11-12T06:37:19.114Z,7.82
2022-11-12T06:38:19.100Z,7.83
2022-11-12T06:39:19.084Z,7.83
2022-11-12T06:40:19.078Z,7.83
2022-11-12T06:41:19.061Z,7.85
2022-11-12T06:42:19.053Z,7.85
2022-11-12T06:43:19.037Z,7.85
2022-11-12T06:44:22.106Z,7.83
2022-11-12T06:45:19.013Z,7.83
2022-11-12T06:46:19.004Z,7.83
2022-11-12T06:47:18.997Z,7.83
2022-11-12T06:48:18.980Z,7.85
2022-11-12T06:49:18.968Z,7.86
2022-11-12T06:50:18.955Z,7.86
2022-11-12T06:51:18.949Z,7.87
2022-11-12T06:52:18.937Z,7.90
2022-11-12T06:53:18.930Z,7.91
2022-11-12T06:54:18.912Z,7.93
2022-11-12T06:55:18.909Z,7.93
2022-11-12T06:56:18.884Z,7.94
2022-11-12T06:57:18.882Z,7.95
2022-11-12T06:58:18.860Z,7.97
2022-11-12T06:59:18.849Z,7.98
2022-11-12T07:00:18.956Z,8.00
2022-11-12T07:01:18.905Z,8.01
2022-11-12T07:02:18.819Z,8.04
2022-11-12T07:03:18.804Z,8.04
2022-11-12T07:04:18.794Z,8.09
2022-11-12T07:05:18.781Z,8.11
2022-11-12T07:06:18.775Z,8.13
2022-11-12T07:07:18.843Z,8.15
2022-11-12T07:08:18.751Z,8.20
2022-11-12T07:09:18.733Z,8.22
2022-11-12T07:10:18.722Z,8.25
2022-11-12T07:11:18.714Z,8.27
2022-11-12T07:12:18.697Z,8.30
2022-11-12T07:13:18.686Z,8.33
2022-11-12T07:14:18.678Z,8.34
2022-11-12T07:15:18.671Z,8.38
2022-11-12T07:16:18.957Z,8.39
2022-11-12T07:17:18.639Z,8.42
2022-11-12T07:18:18.627Z,8.47
2022-11-12T07:19:18.679Z,8.50
2022-11-12T07:20:18.605Z,8.53
2022-11-12T07:21:18.591Z,8.56
2022-11-12T07:22:18.697Z,8.62
2022-11-12T07:23:18.569Z,8.63
2022-11-12T07:24:18.557Z,8.71
2022-11-12T07:25:18.546Z,8.75
2022-11-12T07:26:18.536Z,8.80
2022-11-12T07:27:18.521Z,8.83
2022-11-12T07:28:18.513Z,8.89
2022-11-12T07:29:30.420Z,8.96
2022-11-12T07:30:18.489Z,9.04
2022-11-12T07:31:18.475Z,9.11
2022-11-12T07:32:18.586Z,9.21
2022-11-12T07:33:18.579Z,9.25
2022-11-12T07:34:18.439Z,9.31
2022-11-12T07:35:18.430Z,9.39
2022-11-12T07:36:18.427Z,9.44
2022-11-12T07:37:18.404Z,9.51
2022-11-12T07:38:18.399Z,9.61
2022-11-12T07:39:18.386Z,9.69
2022-11-12T07:40:18.369Z,9.81
2022-11-12T07:41:18.364Z,9.88
2022-11-12T07:42:18.362Z,9.96
2022-11-12T07:43:18.339Z,10.03
2022-11-12T07:44:18.331Z,10.08
2022-11-12T07:45:18.312Z,10.18
2022-11-12T07:46:18.301Z,10.24
2022-11-12T07:47:18.296Z,10.31
2022-11-12T07:48:18.398Z,10.36
2022-11-12T07:49:18.267Z,10.38
2022-11-12T07:50:18.256Z,10.41
2022-11-12T07:51:18.252Z,10.43
2022-11-12T07:52:18.234Z,10.48
2022-11-12T07:53:18.221Z,10.54
2022-11-12T07:54:18.209Z,10.60
2022-11-12T07:55:18.200Z,10.63
2022-11-12T07:56:18.190Z,10.71
2022-11-12T07:57:18.173Z,10.81
2022-11-12T07:58:18.162Z,10.89
2022-11-12T07:59:18.150Z,10.96
2022-11-12T08:00:18.141Z,11.08
2022-11-12T08:01:18.187Z,11.18
2022-11-12T08:02:18.126Z,11.12
2022-11-12T08:03:18.104Z,10.93
2022-11-12T08:04:18.224Z,10.85
2022-11-12T08:05:21.324Z,11.02
2022-11-12T08:06:18.086Z,11.41
2022-11-12T08:07:18.200Z,11.84
2022-11-12T08:08:18.052Z,12.27
2022-11-12T08:09:18.038Z,12.58
2022-11-12T08:10:18.030Z,12.95
2022-11-12T08:11:18.016Z,13.26
2022-11-12T08:12:18.004Z,13.50
2022-11-12T08:13:17.995Z,13.79
2022-11-12T08:14:17.982Z,14.11
2022-11-12T08:15:17.973Z,14.37
2022-11-12T08:16:17.961Z,14.55
2022-11-12T08:17:17.949Z,14.61
2022-11-12T08:18:17.937Z,14.73
2022-11-12T08:19:17.927Z,14.98
2022-11-12T08:20:18.043Z,15.26
2022-11-12T08:21:17.908Z,15.48
2022-11-12T08:22:17.898Z,15.63
2022-11-12T08:23:17.882Z,15.80
2022-11-12T08:24:17.869Z,15.96
2022-11-12T08:25:17.858Z,16.13
2022-11-12T08:26:17.849Z,16.33
2022-11-12T08:27:17.836Z,16.42
2022-11-12T08:28:17.825Z,16.50
2022-11-12T08:29:17.818Z,16.64
2022-11-12T08:30:17.800Z,16.76
2022-11-12T08:31:17.807Z,16.86
2022-11-12T08:32:17.779Z,17.04
2022-11-12T08:33:17.767Z,17.24
2022-11-12T08:34:22.491Z,17.41
2022-11-12T08:35:17.742Z,17.67
2022-11-12T08:36:17.903Z,17.90
2022-11-12T08:37:17.723Z,18.10
2022-11-12T08:38:17.712Z,18.25
2022-11-12T08:39:17.697Z,18.39
2022-11-12T08:40:17.692Z,18.51
2022-11-12T08:41:17.701Z,18.74
2022-11-12T08:42:17.665Z,18.88
2022-11-12T08:43:17.660Z,18.97
2022-11-12T08:44:17.648Z,18.93
2022-11-12T08:45:17.634Z,18.96
2022-11-12T08:46:17.627Z,18.91
2022-11-12T08:47:17.619Z,19.01
2022-11-12T08:48:17.598Z,19.11
2022-11-12T08:49:17.586Z,19.16
2022-11-12T08:50:17.576Z,19.07
2022-11-12T08:51:17.686Z,19.08
2022-11-12T08:52:17.777Z,19.29
2022-11-12T08:53:17.653Z,19.49
2022-11-12T08:54:17.626Z,19.66
2022-11-12T08:55:17.548Z,19.73
2022-11-12T08:56:17.627Z,19.81
2022-11-12T08:57:17.598Z,19.90
2022-11-12T08:58:17.584Z,19.69
2022-11-12T08:59:17.596Z,19.89
2022-11-12T09:00:17.557Z,20.07
2022-11-12T09:01:17.608Z,20.23
2022-11-12T09:02:17.471Z,20.30
2022-11-12T09:03:17.572Z,20.47
2022-11-12T09:04:17.614Z,20.67
2022-11-12T09:05:17.451Z,20.91
2022-11-12T09:06:17.491Z,21.12
2022-11-12T09:07:43.510Z,21.13
2022-11-12T09:08:17.592Z,21.13
2022-11-12T09:09:17.486Z,21.34
2022-11-12T09:10:17.467Z,21.47
2022-11-12T09:11:17.474Z,21.63
2022-11-12T09:12:19.579Z,21.81
2022-11-12T09:13:17.375Z,21.96
2022-11-12T09:14:17.563Z,21.84
2022-11-12T09:16:17.398Z,21.93
2022-11-12T09:17:17.375Z,22.30
2022-11-12T09:18:17.364Z,22.67
2022-11-12T09:19:17.340Z,22.77
2022-11-12T09:20:17.324Z,22.66
2022-11-12T09:21:17.312Z,22.30
2022-11-12T09:22:17.331Z,21.73
2022-11-12T09:23:17.206Z,21.04
2022-11-12T09:24:17.361Z,20.69
2022-11-12T09:25:17.183Z,20.27
2022-11-12T09:26:17.164Z,19.99
2022-11-12T09:27:17.154Z,19.97
2022-11-12T09:28:17.144Z,20.30
2022-11-12T09:29:17.132Z,20.69
2022-11-12T09:30:17.120Z,21.03
2022-11-12T09:31:17.108Z,21.48
2022-11-12T09:32:17.102Z,21.92
2022-11-12T09:33:17.086Z,22.26
2022-11-12T09:34:17.097Z,22.47
2022-11-12T09:35:17.070Z,22.68
2022-11-12T09:36:17.053Z,22.88
2022-11-12T09:37:17.039Z,23.01
2022-11-12T09:38:17.033Z,23.28
2022-11-12T09:39:17.020Z,23.48
2022-11-12T09:40:17.124Z,23.65
2022-11-12T09:41:16.996Z,23.75
2022-11-12T09:42:16.992Z,23.90
2022-11-12T09:43:16.973Z,24.01
2022-11-12T09:44:17.112Z,23.96
2022-11-12T09:45:16.950Z,23.84
2022-11-12T09:46:32.323Z,23.96
2022-11-12T09:47:16.927Z,24.15
2022-11-12T09:48:16.916Z,24.44
2022-11-12T09:49:16.911Z,24.36
2022-11-12T09:50:16.898Z,24.34
2022-11-12T09:51:16.881Z,24.51
2022-11-12T09:52:16.871Z,24.81
2022-11-12T09:53:16.860Z,25.00
2022-11-12T09:54:16.854Z,25.00
2022-11-12T09:55:16.836Z,24.80
2022-11-12T09:56:16.947Z,24.58
2022-11-12T09:57:16.818Z,24.18
2022-11-12T09:58:16.803Z,24.15
2022-11-12T09:59:16.803Z,24.25
2022-11-12T10:00:16.780Z,24.43
2022-11-12T10:01:16.834Z,24.51
2022-11-12T10:02:16.760Z,24.71
2022-11-12T10:03:16.748Z,24.73
2022-11-12T10:04:16.741Z,24.77
2022-11-12T10:05:16.724Z,24.93
2022-11-12T10:06:19.310Z,25.13
2022-11-12T10:07:16.804Z,25.36
2022-11-12T10:08:16.694Z,25.51
2022-11-12T10:09:16.678Z,25.51
2022-11-12T10:10:16.673Z,25.46
2022-11-12T10:11:16.656Z,25.29
2022-11-12T10:12:16.760Z,24.92
2022-11-12T10:13:16.634Z,24.53
2022-11-12T10:14:16.626Z,24.11
2022-11-12T10:15:16.609Z,23.58
2022-11-12T10:16:16.600Z,23.17
2022-11-12T10:17:16.587Z,22.86
2022-11-12T10:18:16.581Z,22.30
2022-11-12T10:19:16.564Z,21.99
2022-11-12T10:20:16.556Z,21.71
2022-11-12T10:21:16.546Z,21.63
2022-11-12T10:22:16.533Z,21.26
2022-11-12T10:23:16.518Z,20.96
2022-11-12T10:24:16.506Z,20.84
2022-11-12T10:25:16.499Z,20.88
2022-11-12T10:26:16.484Z,21.07
2022-11-12T10:27:16.474Z,21.07
2022-11-12T10:28:16.585Z,21.00
2022-11-12T10:29:16.451Z,20.85
2022-11-12T10:30:16.441Z,20.70
2022-11-12T10:31:16.434Z,20.29
2022-11-12T10:32:16.414Z,20.19
2022-11-12T10:33:16.405Z,20.29
2022-11-12T10:34:16.399Z,20.41
2022-11-12T10:35:16.388Z,20.55
2022-11-12T10:36:16.371Z,20.63
2022-11-12T10:37:16.367Z,20.73
2022-11-12T10:38:16.354Z,21.02
2022-11-12T10:39:16.336Z,21.00
2022-11-12T10:40:16.323Z,21.04
2022-11-12T10:41:16.313Z,21.28
2022-11-12T10:42:16.308Z,21.58
2022-11-12T10:43:16.313Z,21.73
2022-11-12T10:44:16.407Z,21.66
2022-11-12T10:45:16.267Z,21.59
2022-11-12T10:46:16.258Z,21.37
2022-11-12T10:47:16.252Z,21.12
2022-11-12T10:48:16.248Z,21.03
2022-11-12T10:49:16.222Z,21.15
2022-11-12T10:50:16.210Z,21.19
2022-11-12T10:51:16.207Z,20.73
2022-11-12T10:52:16.189Z,20.52
2022-11-12T10:53:16.177Z,20.47
2022-11-12T10:54:16.169Z,20.72
2022-11-12T10:55:16.164Z,20.85
2022-11-12T10:56:16.173Z,21.19
2022-11-12T10:57:16.141Z,21.56
2022-11-12T10:58:16.122Z,21.78
2022-11-12T10:59:16.111Z,21.92
2022-11-12T11:00:16.272Z,21.95
2022-11-12T11:01:16.089Z,22.00
2022-11-12T11:02:16.104Z,22.24
2022-11-12T11:03:16.067Z,22.30
2022-11-12T11:04:16.059Z,22.17
2022-11-12T11:05:16.045Z,22.22
2022-11-12T11:06:16.032Z,22.18
2022-11-12T11:07:16.089Z,22.17
2022-11-12T11:08:16.016Z,22.06
2022-11-12T11:09:16.000Z,22.03
2022-11-12T11:10:16.065Z,22.14
2022-11-12T11:11:15.977Z,22.36
2022-11-12T11:12:15.966Z,22.32
2022-11-12T11:13:15.960Z,22.40
2022-11-12T11:14:15.952Z,22.52
2022-11-12T11:15:15.933Z,21.78
2022-11-12T11:16:16.049Z,20.99
2022-11-12T11:17:15.916Z,20.82
2022-11-12T11:18:15.900Z,20.74
2022-11-12T11:19:15.892Z,20.81
2022-11-12T11:20:15.948Z,20.96
2022-11-12T11:21:15.876Z,21.02
2022-11-12T11:22:15.857Z,20.70
2022-11-12T11:23:15.851Z,20.07
2022-11-12T11:24:15.834Z,19.89
2022-11-12T11:25:15.822Z,20.12
2022-11-12T11:26:15.814Z,20.63
2022-11-12T11:27:15.801Z,21.09
2022-11-12T11:28:15.794Z,21.38
2022-11-12T11:29:15.780Z,21.56
2022-11-12T11:30:15.822Z,21.41
2022-11-12T11:31:15.760Z,21.10
2022-11-12T11:32:15.861Z,20.79
2022-11-12T11:33:15.743Z,20.07
2022-11-12T11:34:15.724Z,19.61
2022-11-12T11:35:15.713Z,19.31
2022-11-12T11:36:15.702Z,19.12
2022-11-12T11:37:15.692Z,19.07
2022-11-12T11:38:15.684Z,19.33
2022-11-12T11:39:15.677Z,19.66
2022-11-12T11:40:15.656Z,19.97
2022-11-12T11:41:15.645Z,20.33
2022-11-12T11:42:15.637Z,20.79
2022-11-12T11:43:15.626Z,21.26
2022-11-12T11:44:15.775Z,21.73
2022-11-12T11:45:15.602Z,21.95
2022-11-12T11:46:15.593Z,22.22
2022-11-12T11:47:15.580Z,22.43
2022-11-12T11:48:15.686Z,22.57
2022-11-12T11:49:15.567Z,22.70
2022-11-12T11:50:15.545Z,23.04
2022-11-12T11:51:15.534Z,23.33
2022-11-12T11:52:15.525Z,23.58
2022-11-12T11:53:15.514Z,23.80
2022-11-12T11:54:15.505Z,23.97
2022-11-12T11:55:15.496Z,23.85
2022-11-12T11:56:15.480Z,22.57
2022-11-12T11:57:15.478Z,21.67
2022-11-12T11:58:15.458Z,21.32
2022-11-12T11:59:15.452Z,21.37
2022-11-12T12:00:15.436Z,21.85
2022-11-12T12:01:15.425Z,22.03
2022-11-12T12:02:15.415Z,22.14
2022-11-12T12:03:15.475Z,22.05
2022-11-12T12:04:15.524Z,21.73
2022-11-12T12:05:15.379Z,21.37
2022-11-12T12:06:15.371Z,21.18
2022-11-12T12:07:15.401Z,21.09
2022-11-12T12:08:15.352Z,20.94
2022-11-12T12:09:15.337Z,21.37
2022-11-12T12:10:15.325Z,21.43
2022-11-12T12:11:15.314Z,21.66
2022-11-12T12:12:15.302Z,21.84
2022-11-12T12:13:15.292Z,21.84
2022-11-12T12:14:15.280Z,21.87
2022-11-12T12:15:15.272Z,22.27
2022-11-12T12:16:15.259Z,22.68
2022-11-12T12:17:15.248Z,23.15
2022-11-12T12:18:15.236Z,23.47
2022-11-12T12:19:15.225Z,23.78
2022-11-12T12:20:15.338Z,24.23
2022-11-12T12:21:15.204Z,24.47
2022-11-12T12:22:15.200Z,24.34
2022-11-12T12:23:15.191Z,24.33
2022-11-12T12:24:15.178Z,24.37
2022-11-12T12:25:15.163Z,24.48
2022-11-12T12:26:15.146Z,24.60
2022-11-12T12:27:15.136Z,24.90
2022-11-12T12:28:15.126Z,24.84
2022-11-12T12:29:15.117Z,24.84
2022-11-12T12:30:15.106Z,24.75
2022-11-12T12:31:15.094Z,24.66
2022-11-12T12:32:15.084Z,24.22
2022-11-12T12:33:15.074Z,24.11
2022-11-12T12:34:15.058Z,24.28
2022-11-12T12:35:15.051Z,24.28
2022-11-12T12:36:15.154Z,24.08
2022-11-12T12:37:15.024Z,23.65
2022-11-12T12:38:15.015Z,23.36
2022-11-12T12:39:15.001Z,23.32
2022-11-12T12:40:14.994Z,23.22
2022-11-12T12:41:14.981Z,23.30
2022-11-12T12:42:14.969Z,23.18
2022-11-12T12:43:14.965Z,23.04
2022-11-12T12:44:14.947Z,22.89
2022-11-12T12:45:14.934Z,22.93
2022-11-12T12:46:14.927Z,23.08
2022-11-12T12:47:14.913Z,22.86
2022-11-12T12:48:14.906Z,22.61
2022-11-12T12:49:14.889Z,22.37
2022-11-12T12:50:14.884Z,22.52
2022-11-12T12:51:14.868Z,22.78
2022-11-12T12:52:14.979Z,23.06
2022-11-12T12:53:14.855Z,22.92
2022-11-12T12:54:14.837Z,22.55
2022-11-12T12:55:14.831Z,22.03
2022-11-12T12:56:14.812Z,21.59
2022-11-12T12:57:14.803Z,21.26
2022-11-12T12:58:14.789Z,21.04
2022-11-12T12:59:14.779Z,21.20
2022-11-12T13:00:15.723Z,21.66
2022-11-12T13:01:14.835Z,22.22
2022-11-12T13:02:14.748Z,22.40
2022-11-12T13:03:14.736Z,22.76
2022-11-12T13:04:14.725Z,23.03
2022-11-12T13:05:14.715Z,23.22
2022-11-12T13:06:14.702Z,23.35
2022-11-12T13:07:14.795Z,23.33
2022-11-12T13:08:14.800Z,23.25